createdAt,value
2018-07-13T00:00:47.631Z,13.60
2018-07-13T00:01:47.608Z,10.80
2018-07-13T00:02:47.561Z,13.00
2018-07-13T00:03:47.545Z,11.30
2018-07-13T00:04:47.517Z,11.80
2018-07-13T00:05:47.500Z,11.40
2018-07-13T00:06:47.471Z,12.40
2018-07-13T00:07:47.475Z,8.70
2018-07-13T00:08:47.419Z,12.10
2018-07-13T00:09:47.404Z,12.40
2018-07-13T00:10:47.400Z,12.60
2018-07-13T00:11:47.356Z,8.50
2018-07-13T00:12:47.333Z,11.80
2018-07-13T00:13:47.312Z,13.00
2018-07-13T00:14:47.283Z,12.00
2018-07-13T00:15:47.267Z,14.10
2018-07-13T00:16:47.250Z,11.80
2018-07-13T00:17:47.218Z,11.20
2018-07-13T00:18:47.199Z,12.50
2018-07-13T00:19:47.216Z,14.40
2018-07-13T00:20:47.182Z,11.40
2018-07-13T00:21:47.225Z,11.00
2018-07-13T00:22:47.119Z,13.40
2018-07-13T00:24:38.028Z,19.50
2018-07-13T00:25:38.040Z,13.50
2018-07-13T00:26:37.946Z,10.60
2018-07-13T00:27:37.949Z,11.20
2018-07-13T00:28:37.917Z,12.90
2018-07-13T00:29:37.952Z,20.80
2018-07-13T00:30:37.851Z,11.70
2018-07-13T00:31:38.896Z,13.70
2018-07-13T00:32:37.800Z,12.50
2018-07-13T00:33:37.876Z,11.00
2018-07-13T00:34:37.756Z,12.90
2018-07-13T00:35:37.791Z,10.60
2018-07-13T00:36:37.709Z,13.40
2018-07-13T00:37:37.705Z,15.80
2018-07-13T00:38:37.666Z,13.60
2018-07-13T00:39:37.648Z,15.70
2018-07-13T00:40:37.617Z,13.10
2018-07-13T00:41:37.596Z,13.30
2018-07-13T00:42:37.568Z,17.90
2018-07-13T00:43:37.558Z,16.10
2018-07-13T00:44:37.536Z,14.30
2018-07-13T00:45:37.507Z,13.20
2018-07-13T00:46:37.503Z,14.70
2018-07-13T00:47:37.459Z,14.50
2018-07-13T00:48:37.445Z,13.30
2018-07-13T00:49:37.409Z,16.60
2018-07-13T00:50:37.386Z,12.70
2018-07-13T00:51:37.362Z,15.00
2018-07-13T00:52:37.341Z,18.70
2018-07-13T00:53:37.327Z,11.50
2018-07-13T00:54:37.305Z,14.70
2018-07-13T00:55:37.276Z,14.60
2018-07-13T00:56:37.268Z,15.80
2018-07-13T00:57:37.227Z,13.90
2018-07-13T00:58:37.192Z,14.30
2018-07-13T00:59:37.174Z,15.80
2018-07-13T01:00:37.177Z,16.20
2018-07-13T01:01:37.136Z,16.50
2018-07-13T01:02:37.104Z,16.40
2018-07-13T01:03:38.085Z,23.20
2018-07-13T01:04:37.058Z,15.30
2018-07-13T01:05:37.036Z,14.90
2018-07-13T01:06:37.011Z,15.50
2018-07-13T01:07:36.989Z,18.60
2018-07-13T01:08:36.962Z,20.30
2018-07-13T01:09:36.946Z,18.30
2018-07-13T01:10:36.916Z,17.00
2018-07-13T01:11:36.955Z,19.90
2018-07-13T01:12:36.875Z,15.50
2018-07-13T01:13:38.859Z,17.20
2018-07-13T01:14:36.820Z,18.40
2018-07-13T01:15:37.808Z,19.70
2018-07-13T01:16:36.781Z,19.60
2018-07-13T01:17:36.771Z,17.50
2018-07-13T01:18:36.740Z,16.30
2018-07-13T01:19:36.715Z,17.70
2018-07-13T01:20:36.691Z,16.30
2018-07-13T01:21:37.665Z,16.50
2018-07-13T01:22:36.642Z,15.30
2018-07-13T01:23:36.617Z,15.20
2018-07-13T01:24:36.588Z,18.20
2018-07-13T01:25:36.565Z,19.00
2018-07-13T01:26:36.538Z,15.80
2018-07-13T01:27:36.518Z,19.70
2018-07-13T01:28:36.495Z,16.70
2018-07-13T01:29:36.472Z,17.30
2018-07-13T01:30:36.449Z,16.30
2018-07-13T01:31:36.434Z,15.90
2018-07-13T01:32:36.397Z,16.80
2018-07-13T01:33:36.394Z,16.80
2018-07-13T01:34:36.355Z,18.30
2018-07-13T01:35:36.334Z,18.90
2018-07-13T01:36:36.306Z,18.60
2018-07-13T01:37:36.296Z,18.20
2018-07-13T01:38:36.254Z,17.10
2018-07-13T01:39:36.246Z,20.50
2018-07-13T01:40:36.229Z,17.80
2018-07-13T01:41:36.192Z,20.50
2018-07-13T01:42:36.159Z,13.90
2018-07-13T01:43:36.158Z,18.90
2018-07-13T01:44:36.117Z,21.70
2018-07-13T01:45:36.199Z,18.10
2018-07-13T01:46:36.064Z,14.80
2018-07-13T01:47:37.131Z,16.50
2018-07-13T01:48:36.016Z,15.90
2018-07-13T01:49:36.018Z,17.20
2018-07-13T01:50:35.973Z,16.90
2018-07-13T01:51:37.055Z,24.80
2018-07-13T01:52:35.930Z,19.50
2018-07-13T01:53:35.941Z,22.80
2018-07-13T01:54:35.879Z,20.60
2018-07-13T01:55:35.971Z,17.80
2018-07-13T01:56:35.820Z,22.00
2018-07-13T01:57:35.864Z,19.60
2018-07-13T01:58:35.777Z,28.80
2018-07-13T01:59:36.801Z,20.40
2018-07-13T02:00:35.727Z,21.70
2018-07-13T02:01:35.791Z,26.80
2018-07-13T02:02:35.699Z,19.60
2018-07-13T02:03:36.725Z,16.40
2018-07-13T02:04:35.638Z,22.90
2018-07-13T02:05:35.618Z,22.30
2018-07-13T02:06:35.586Z,19.80
2018-07-13T02:07:35.566Z,20.30
2018-07-13T02:08:35.541Z,25.10
2018-07-13T02:09:35.521Z,16.90
2018-07-13T02:10:35.530Z,23.60
2018-07-13T02:11:36.480Z,19.40
2018-07-13T02:12:35.449Z,15.90
2018-07-13T02:13:35.442Z,24.30
2018-07-13T02:14:35.404Z,21.10
2018-07-13T02:15:35.386Z,20.70
2018-07-13T02:16:35.357Z,18.90
2018-07-13T02:17:35.331Z,21.10
2018-07-13T02:18:35.305Z,21.00
2018-07-13T02:19:35.295Z,23.90
2018-07-13T02:20:35.258Z,18.70
2018-07-13T02:21:35.246Z,16.40
2018-07-13T02:22:35.213Z,23.30
2018-07-13T02:23:37.196Z,20.00
2018-07-13T02:24:35.158Z,17.60
2018-07-13T02:25:36.142Z,21.10
2018-07-13T02:26:35.115Z,21.80
2018-07-13T02:27:35.098Z,20.50
2018-07-13T02:28:35.067Z,19.50
2018-07-13T02:29:35.052Z,20.30
2018-07-13T02:30:35.016Z,23.50
2018-07-13T02:31:36.012Z,23.10
2018-07-13T02:32:34.973Z,25.90
2018-07-13T02:33:34.953Z,24.30
2018-07-13T02:34:34.928Z,22.00
2018-07-13T02:35:34.912Z,20.70
2018-07-13T02:36:34.871Z,18.70
2018-07-13T02:37:34.853Z,19.40
2018-07-13T02:38:34.832Z,19.70
2018-07-13T02:39:34.815Z,18.70
2018-07-13T02:40:34.781Z,32.80
2018-07-13T02:41:34.759Z,23.20
2018-07-13T02:42:34.736Z,25.80
2018-07-13T02:43:34.712Z,22.70
2018-07-13T02:44:34.681Z,24.70
2018-07-13T02:45:34.678Z,21.10
2018-07-13T02:46:34.631Z,21.70
2018-07-13T02:47:34.627Z,22.70
2018-07-13T02:48:34.591Z,18.40
2018-07-13T02:49:34.570Z,21.20
2018-07-13T02:50:34.559Z,23.00
2018-07-13T02:51:34.522Z,18.60
2018-07-13T02:52:34.496Z,20.40
2018-07-13T02:53:34.473Z,17.90
2018-07-13T02:54:34.453Z,17.30
2018-07-13T02:55:34.427Z,16.00
2018-07-13T02:56:34.396Z,17.80
2018-07-13T02:57:34.379Z,21.70
2018-07-13T02:58:34.355Z,23.20
2018-07-13T02:59:34.329Z,19.10
2018-07-13T03:00:34.303Z,17.90
2018-07-13T03:01:34.290Z,23.10
2018-07-13T03:02:34.261Z,20.90
2018-07-13T03:03:34.236Z,18.40
2018-07-13T03:04:34.210Z,17.90
2018-07-13T03:05:34.187Z,25.30
2018-07-13T03:06:34.157Z,18.10
2018-07-13T03:07:34.140Z,18.30
2018-07-13T03:08:34.116Z,19.80
2018-07-13T03:09:34.096Z,20.50
2018-07-13T03:10:34.064Z,16.90
2018-07-13T03:11:34.050Z,19.70
2018-07-13T03:12:34.021Z,22.90
2018-07-13T03:13:33.992Z,19.30
2018-07-13T03:14:33.966Z,17.70
2018-07-13T03:15:33.951Z,17.50
2018-07-13T03:16:33.916Z,18.70
2018-07-13T03:17:33.898Z,17.50
2018-07-13T03:18:33.871Z,18.40
2018-07-13T03:19:33.850Z,15.30
2018-07-13T03:20:33.835Z,17.70
2018-07-13T03:21:34.811Z,17.80
2018-07-13T03:22:33.783Z,18.20
2018-07-13T03:23:33.858Z,18.40
2018-07-13T03:24:33.732Z,18.10
2018-07-13T03:25:33.770Z,19.40
2018-07-13T03:26:33.676Z,17.40
2018-07-13T03:27:34.810Z,20.70
2018-07-13T03:28:33.648Z,14.10
2018-07-13T03:29:33.614Z,18.80
2018-07-13T03:30:33.584Z,20.60
2018-07-13T03:31:33.612Z,17.00
2018-07-13T03:32:33.535Z,21.10
2018-07-13T03:33:33.619Z,16.50
2018-07-13T03:34:33.492Z,14.30
2018-07-13T03:35:33.528Z,14.80
2018-07-13T03:36:33.442Z,16.40
2018-07-13T03:37:33.450Z,16.40
2018-07-13T03:38:33.404Z,12.00
2018-07-13T03:39:33.456Z,19.10
2018-07-13T03:40:33.350Z,15.60
2018-07-13T03:41:33.359Z,17.50
2018-07-13T03:42:33.304Z,18.60
2018-07-13T03:43:33.276Z,18.50
2018-07-13T03:44:33.265Z,14.50
2018-07-13T03:45:33.246Z,15.80
2018-07-13T03:46:33.203Z,20.40
2018-07-13T03:47:33.195Z,14.70
2018-07-13T03:48:33.180Z,18.20
2018-07-13T03:49:33.132Z,17.50
2018-07-13T03:50:33.118Z,18.50
2018-07-13T03:51:33.097Z,18.00
2018-07-13T03:52:33.083Z,19.10
2018-07-13T03:53:33.042Z,14.40
2018-07-13T03:54:33.016Z,16.80
2018-07-13T03:55:32.988Z,20.80
2018-07-13T03:56:32.974Z,16.20
2018-07-13T03:57:32.943Z,19.40
2018-07-13T03:58:32.938Z,15.10
2018-07-13T03:59:32.891Z,23.10
2018-07-13T04:00:32.971Z,17.60
2018-07-13T04:01:32.842Z,16.00
2018-07-13T04:02:32.810Z,15.30
2018-07-13T04:03:32.800Z,18.90
2018-07-13T04:04:32.770Z,16.30
2018-07-13T04:05:32.762Z,15.70
2018-07-13T04:06:32.783Z,19.10
2018-07-13T04:07:32.719Z,15.90
2018-07-13T04:08:32.684Z,19.20
2018-07-13T04:09:32.658Z,18.20
2018-07-13T04:10:32.629Z,16.50
2018-07-13T04:11:32.608Z,20.00
2018-07-13T04:12:32.584Z,18.50
2018-07-13T04:13:32.553Z,18.80
2018-07-13T04:14:32.542Z,17.20
2018-07-13T04:15:32.505Z,20.50
2018-07-13T04:16:32.473Z,17.40
2018-07-13T04:17:32.460Z,17.10
2018-07-13T04:18:32.431Z,19.20
2018-07-13T04:19:32.416Z,20.20
2018-07-13T04:20:32.387Z,22.30
2018-07-13T04:21:32.374Z,23.40
2018-07-13T04:22:32.339Z,18.40
2018-07-13T04:23:32.313Z,20.80
2018-07-13T04:24:32.288Z,22.20
2018-07-13T04:25:32.285Z,16.60
2018-07-13T04:26:32.245Z,20.30
2018-07-13T04:27:32.225Z,22.20
2018-07-13T04:28:32.191Z,20.30
2018-07-13T04:29:32.184Z,22.20
2018-07-13T04:30:32.143Z,21.90
2018-07-13T04:31:32.132Z,19.10
2018-07-13T04:32:32.090Z,20.10
2018-07-13T04:33:32.075Z,22.00
2018-07-13T04:34:32.041Z,24.90
2018-07-13T04:36:18.226Z,26.20
2018-07-13T04:37:18.169Z,15.00
2018-07-13T04:38:18.143Z,17.10
2018-07-13T04:39:18.124Z,20.00
2018-07-13T04:40:18.107Z,18.30
2018-07-13T04:41:18.087Z,24.60
2018-07-13T04:42:18.060Z,17.40
2018-07-13T04:43:18.032Z,21.50
2018-07-13T04:44:18.004Z,22.90
2018-07-13T04:45:17.990Z,25.80
2018-07-13T04:46:17.957Z,19.10
2018-07-13T04:47:17.936Z,20.80
2018-07-13T04:48:17.902Z,21.10
2018-07-13T04:49:17.897Z,20.30
2018-07-13T04:50:17.915Z,18.10
2018-07-13T04:51:17.832Z,18.10
2018-07-13T04:52:17.809Z,17.80
2018-07-13T04:53:17.799Z,21.00
2018-07-13T04:54:17.765Z,18.90
2018-07-13T04:55:17.739Z,23.10
2018-07-13T04:56:17.719Z,18.60
2018-07-13T04:57:17.703Z,19.40
2018-07-13T04:58:17.669Z,24.30
2018-07-13T04:59:17.661Z,21.90
2018-07-13T05:00:17.623Z,20.30
2018-07-13T05:01:17.604Z,21.20
2018-07-13T05:02:17.574Z,18.50
2018-07-13T05:03:17.552Z,17.60
2018-07-13T05:04:17.524Z,19.30
2018-07-13T05:05:17.511Z,19.50
2018-07-13T05:06:17.546Z,18.10
2018-07-13T05:07:17.480Z,21.60
2018-07-13T05:08:17.438Z,22.70
2018-07-13T05:09:17.422Z,16.30
2018-07-13T05:10:17.396Z,20.60
2018-07-13T05:11:17.371Z,20.00
2018-07-13T05:12:17.332Z,21.00
2018-07-13T05:13:17.324Z,18.10
2018-07-13T05:14:17.317Z,15.80
2018-07-13T05:15:17.286Z,18.80
2018-07-13T05:16:17.251Z,18.90
2018-07-13T05:17:17.228Z,18.80
2018-07-13T05:18:17.199Z,23.80
2018-07-13T05:19:17.186Z,21.50
2018-07-13T05:20:17.154Z,22.70
2018-07-13T05:21:17.145Z,20.10
2018-07-13T05:22:17.103Z,24.10
2018-07-13T05:23:17.080Z,19.10
2018-07-13T05:24:17.049Z,24.00
2018-07-13T05:25:17.031Z,20.70
2018-07-13T05:26:17.002Z,22.40
2018-07-13T05:27:17.982Z,22.10
2018-07-13T05:28:16.950Z,24.50
2018-07-13T05:29:16.944Z,21.20
2018-07-13T05:30:16.907Z,20.80
2018-07-13T05:31:16.884Z,18.70
2018-07-13T05:32:16.892Z,18.50
2018-07-13T05:33:16.849Z,22.80
2018-07-13T05:34:16.813Z,22.20
2018-07-13T05:35:16.791Z,25.40
2018-07-13T05:36:16.766Z,24.80
2018-07-13T05:37:16.747Z,17.50
2018-07-13T05:38:16.775Z,19.80
2018-07-13T05:39:16.695Z,27.90
2018-07-13T05:40:16.670Z,29.20
2018-07-13T05:41:16.638Z,21.40
2018-07-13T05:42:16.621Z,23.10
2018-07-13T05:43:16.643Z,23.70
2018-07-13T05:44:16.606Z,22.90
2018-07-13T05:45:16.656Z,24.90
2018-07-13T05:46:16.519Z,26.80
2018-07-13T05:47:16.569Z,21.50
2018-07-13T05:48:16.470Z,22.60
2018-07-13T05:49:17.499Z,22.90
2018-07-13T05:50:16.439Z,23.00
2018-07-13T05:51:16.505Z,18.90
2018-07-13T05:52:16.393Z,25.60
2018-07-13T05:53:16.415Z,21.20
2018-07-13T05:54:16.327Z,20.10
2018-07-13T05:55:16.407Z,22.00
2018-07-13T05:56:16.282Z,22.80
2018-07-13T05:57:16.337Z,19.00
2018-07-13T05:58:16.237Z,22.70
2018-07-13T05:59:16.241Z,25.30
2018-07-13T06:00:16.185Z,20.70
2018-07-13T06:01:16.253Z,25.00
2018-07-13T06:02:16.146Z,24.90
2018-07-13T06:03:16.165Z,25.20
2018-07-13T06:04:16.086Z,22.60
2018-07-13T06:05:16.175Z,19.40
2018-07-13T06:06:16.041Z,23.30
2018-07-13T06:07:16.104Z,26.10
2018-07-13T06:08:15.996Z,19.00
2018-07-13T06:10:02.280Z,16.20
2018-07-13T06:11:02.298Z,20.30
2018-07-13T06:12:02.449Z,18.80
2018-07-13T06:13:02.200Z,19.50
2018-07-13T06:14:02.188Z,18.40
2018-07-13T06:15:02.225Z,20.90
2018-07-13T06:16:02.096Z,16.80
2018-07-13T06:17:02.124Z,19.20
2018-07-13T06:18:02.103Z,21.40
2018-07-13T06:19:02.238Z,20.20
2018-07-13T06:20:02.046Z,17.30
2018-07-13T06:21:02.052Z,15.50
2018-07-13T06:22:01.978Z,20.40
2018-07-13T06:23:01.963Z,16.70
2018-07-13T06:24:01.908Z,19.10
2018-07-13T06:25:01.989Z,18.80
2018-07-13T06:26:01.861Z,17.70
2018-07-13T06:27:01.894Z,17.50
2018-07-13T06:28:01.817Z,23.60
2018-07-13T06:29:01.894Z,21.70
2018-07-13T06:30:01.911Z,16.30
2018-07-13T06:31:01.849Z,20.00
2018-07-13T06:32:01.723Z,16.30
2018-07-13T06:33:02.744Z,15.30
2018-07-13T06:34:01.663Z,15.10
2018-07-13T06:35:01.719Z,18.50
2018-07-13T06:36:01.624Z,15.40
2018-07-13T06:37:01.647Z,17.10
2018-07-13T06:38:01.576Z,16.70
2018-07-13T06:39:01.650Z,16.50
2018-07-13T06:40:01.531Z,18.80
2018-07-13T06:41:01.575Z,12.90
2018-07-13T06:42:01.480Z,14.40
2018-07-13T06:43:01.589Z,14.50
2018-07-13T06:44:01.431Z,18.00
2018-07-13T06:45:01.421Z,14.90
2018-07-13T06:46:01.392Z,22.80
2018-07-13T06:47:01.365Z,17.20
2018-07-13T06:48:01.434Z,16.60
2018-07-13T06:49:47.522Z,17.30
2018-07-13T06:50:47.527Z,14.20
2018-07-13T06:52:40.885Z,16.90
2018-07-13T06:53:40.837Z,14.50
2018-07-13T06:54:40.812Z,12.90
2018-07-13T06:55:40.785Z,13.40
2018-07-13T06:56:40.767Z,15.30
2018-07-13T06:57:40.767Z,13.90
2018-07-13T06:58:40.718Z,14.20
2018-07-13T06:59:40.803Z,14.70
2018-07-13T07:00:40.667Z,17.40
2018-07-13T07:01:40.703Z,16.00
2018-07-13T07:02:40.652Z,15.80
2018-07-13T07:03:40.609Z,14.10
2018-07-13T07:04:40.575Z,13.10
2018-07-13T07:05:40.616Z,11.80
2018-07-13T07:06:40.515Z,14.00
2018-07-13T07:07:40.611Z,15.40
2018-07-13T07:08:40.471Z,13.50
2018-07-13T07:09:40.542Z,19.10
2018-07-13T07:10:40.425Z,16.10
2018-07-13T07:11:40.800Z,21.10
2018-07-13T07:12:40.373Z,16.70
2018-07-13T07:13:40.556Z,12.30
2018-07-13T07:14:40.415Z,15.40
2018-07-13T07:15:40.309Z,15.70
2018-07-13T07:16:40.385Z,13.70
2018-07-13T07:17:40.265Z,12.60
2018-07-13T07:18:40.383Z,15.40
2018-07-13T07:19:40.208Z,13.70
2018-07-13T07:20:40.204Z,14.20
2018-07-13T07:21:40.169Z,12.00
2018-07-13T07:22:40.223Z,11.20
2018-07-13T07:23:40.099Z,10.80
2018-07-13T07:24:40.123Z,9.40
2018-07-13T07:25:40.067Z,12.00
2018-07-13T07:26:40.149Z,11.60
2018-07-13T07:27:40.020Z,12.20
2018-07-13T07:28:40.055Z,13.40
2018-07-13T07:29:39.950Z,11.20
2018-07-13T07:30:41.030Z,13.20
2018-07-13T07:31:39.981Z,16.00
2018-07-13T07:32:39.980Z,12.30
2018-07-13T07:33:39.858Z,13.40
2018-07-13T07:34:39.927Z,9.60
2018-07-13T07:35:39.816Z,15.50
2018-07-13T07:36:39.897Z,13.90
2018-07-13T07:37:39.784Z,14.30
2018-07-13T07:38:39.811Z,11.50
2018-07-13T07:39:39.721Z,13.80
2018-07-13T07:40:39.738Z,13.60
2018-07-13T07:41:39.678Z,12.50
2018-07-13T07:42:39.731Z,13.10
2018-07-13T07:43:39.611Z,12.70
2018-07-13T07:44:39.651Z,12.60
2018-07-13T07:45:39.581Z,18.40
2018-07-13T07:46:39.678Z,14.80
2018-07-13T07:47:39.549Z,13.40
2018-07-13T07:48:39.563Z,11.70
2018-07-13T07:49:39.463Z,15.20
2018-07-13T07:50:39.471Z,15.40
2018-07-13T07:51:39.424Z,13.40
2018-07-13T07:52:40.410Z,12.30
2018-07-13T07:53:39.382Z,12.50
2018-07-13T07:54:39.403Z,15.40
2018-07-13T07:55:39.326Z,15.70
2018-07-13T07:56:39.311Z,13.20
2018-07-13T07:57:39.337Z,12.90
2018-07-13T07:58:39.336Z,12.70
2018-07-13T07:59:39.229Z,14.70
2018-07-13T08:00:39.234Z,11.50
2018-07-13T08:01:39.181Z,13.70
2018-07-13T08:02:39.247Z,12.90
2018-07-13T08:03:39.745Z,17.20
2018-07-13T08:04:39.167Z,12.60
2018-07-13T08:05:39.082Z,11.00
2018-07-13T08:06:39.292Z,12.00
2018-07-13T08:07:39.041Z,12.80
2018-07-13T08:08:39.098Z,14.10
2018-07-13T08:09:38.979Z,14.10
2018-07-13T08:10:38.997Z,12.30
2018-07-13T08:11:38.940Z,13.30
2018-07-13T08:12:39.015Z,12.60
2018-07-13T08:13:38.956Z,13.60
2018-07-13T08:14:39.017Z,13.50
2018-07-13T08:15:38.842Z,13.10
2018-07-13T08:16:38.840Z,15.00
2018-07-13T08:17:38.796Z,12.00
2018-07-13T08:18:38.838Z,11.50
2018-07-13T08:19:38.731Z,11.30
2018-07-13T08:20:38.752Z,12.50
2018-07-13T08:21:38.691Z,10.40
2018-07-13T08:22:38.766Z,12.30
2018-07-13T08:23:38.631Z,15.30
2018-07-13T08:24:39.702Z,12.80
2018-07-13T08:25:38.591Z,13.70
2018-07-13T08:26:38.612Z,13.20
2018-07-13T08:27:38.543Z,15.40
2018-07-13T08:28:38.600Z,11.20
2018-07-13T08:29:38.493Z,11.80
2018-07-13T08:30:38.520Z,12.10
2018-07-13T08:31:38.449Z,11.60
2018-07-13T08:32:38.538Z,10.50
2018-07-13T08:33:38.386Z,11.60
2018-07-13T08:34:38.429Z,11.10
2018-07-13T08:35:38.347Z,11.00
2018-07-13T08:36:38.343Z,11.80
2018-07-13T08:37:38.331Z,11.10
2018-07-13T08:38:38.352Z,13.20
2018-07-13T08:39:38.263Z,10.60
2018-07-13T08:40:38.344Z,16.30
2018-07-13T08:41:38.201Z,11.90
2018-07-13T08:42:38.276Z,12.60
2018-07-13T08:43:38.146Z,15.40
2018-07-13T08:44:38.194Z,10.60
2018-07-13T08:45:38.157Z,14.40
2018-07-13T08:46:38.204Z,11.90
2018-07-13T08:47:38.070Z,11.00
2018-07-13T08:48:38.118Z,14.20
2018-07-13T08:49:38.008Z,13.00
2018-07-13T08:50:38.019Z,11.10
2018-07-13T08:51:38.021Z,14.60
2018-07-13T08:52:38.028Z,12.00
2018-07-13T08:53:37.911Z,14.60
2018-07-13T08:54:37.949Z,14.00
2018-07-13T08:55:37.872Z,9.20
2018-07-13T08:56:37.850Z,10.80
2018-07-13T08:57:37.812Z,9.20
2018-07-13T08:58:38.883Z,14.10
2018-07-13T08:59:37.769Z,10.90
2018-07-13T09:00:37.782Z,13.60
2018-07-13T09:01:37.763Z,13.60
2018-07-13T09:02:37.793Z,14.10
2018-07-13T09:03:37.674Z,8.40
2018-07-13T09:04:37.792Z,14.20
2018-07-13T09:05:37.656Z,9.90
2018-07-13T09:06:37.727Z,8.00
2018-07-13T09:07:37.672Z,7.80
2018-07-13T09:08:37.699Z,10.90
2018-07-13T09:09:37.523Z,9.70
2018-07-13T09:10:37.531Z,12.60
2018-07-13T09:11:37.485Z,12.20
2018-07-13T09:12:37.545Z,11.40
2018-07-13T09:13:37.443Z,9.40
2018-07-13T09:14:37.450Z,11.50
2018-07-13T09:15:37.396Z,10.90
2018-07-13T09:16:37.469Z,9.40
2018-07-13T09:17:37.338Z,11.70
2018-07-13T09:18:37.379Z,10.40
2018-07-13T09:19:37.290Z,9.50
2018-07-13T09:20:37.347Z,10.20
2018-07-13T09:21:37.263Z,11.30
2018-07-13T09:22:38.353Z,10.60
2018-07-13T09:23:37.242Z,9.70
2018-07-13T09:24:37.220Z,8.70
2018-07-13T09:25:37.148Z,11.70
2018-07-13T09:26:37.224Z,9.00
2018-07-13T09:27:37.094Z,8.80
2018-07-13T09:28:37.139Z,9.10
2018-07-13T09:30:23.087Z,13.60
2018-07-13T09:31:22.974Z,10.90
2018-07-13T09:32:22.943Z,8.30
2018-07-13T09:33:23.962Z,8.50
2018-07-13T09:34:22.891Z,11.90
2018-07-13T09:35:22.969Z,9.00
2018-07-13T09:36:22.850Z,9.80
2018-07-13T09:37:22.867Z,7.00
2018-07-13T09:38:22.843Z,10.80
2018-07-13T09:39:22.870Z,12.70
2018-07-13T09:40:22.750Z,9.00
2018-07-13T09:41:22.777Z,11.10
2018-07-13T09:42:22.728Z,7.70
2018-07-13T09:43:22.686Z,9.80
2018-07-13T09:44:22.655Z,11.00
2018-07-13T09:45:22.659Z,8.60
2018-07-13T09:46:22.611Z,10.40
2018-07-13T09:47:22.591Z,6.50
2018-07-13T09:48:22.561Z,12.70
2018-07-13T09:49:22.648Z,9.70
2018-07-13T09:50:22.523Z,10.10
2018-07-13T09:51:22.568Z,9.00
2018-07-13T09:52:22.469Z,10.00
2018-07-13T09:53:22.579Z,8.70
2018-07-13T09:54:22.416Z,6.70
2018-07-13T09:55:22.476Z,10.30
2018-07-13T09:56:22.369Z,11.30
2018-07-13T09:57:23.414Z,10.80
2018-07-13T09:58:22.341Z,8.80
2018-07-13T09:59:27.000Z,8.00
2018-07-13T10:00:22.287Z,10.50
2018-07-13T10:01:22.303Z,10.50
2018-07-13T10:02:22.244Z,9.00
2018-07-13T10:03:23.225Z,8.80
2018-07-13T10:04:22.184Z,6.40
2018-07-13T10:05:22.221Z,7.60
2018-07-13T10:06:22.161Z,8.50
2018-07-13T10:07:22.149Z,8.60
2018-07-13T10:08:22.093Z,7.70
2018-07-13T10:09:22.148Z,9.40
2018-07-13T10:10:22.055Z,7.50
2018-07-13T10:11:22.060Z,9.20
2018-07-13T10:12:22.006Z,16.20
2018-07-13T10:13:22.109Z,8.80
2018-07-13T10:14:21.945Z,5.70
2018-07-13T10:15:21.977Z,10.70
2018-07-13T10:16:21.896Z,7.20
2018-07-13T10:17:21.886Z,8.30
2018-07-13T10:18:21.859Z,12.20
2018-07-13T10:19:21.828Z,11.00
2018-07-13T10:20:21.811Z,10.00
2018-07-13T10:21:21.773Z,10.20
2018-07-13T10:22:21.753Z,6.90
2018-07-13T10:23:21.744Z,8.80
2018-07-13T10:24:21.718Z,7.00
2018-07-13T10:25:21.693Z,8.60
2018-07-13T10:26:21.663Z,8.90
2018-07-13T10:27:21.631Z,8.10
2018-07-13T10:28:21.617Z,9.10
2018-07-13T10:29:21.592Z,7.30
2018-07-13T10:30:21.587Z,9.40
2018-07-13T10:31:21.544Z,9.50
2018-07-13T10:32:21.556Z,9.00
2018-07-13T10:33:21.504Z,6.20
2018-07-13T10:34:21.478Z,8.70
2018-07-13T10:35:21.491Z,11.40
2018-07-13T10:36:21.432Z,6.10
2018-07-13T10:37:21.400Z,7.00
2018-07-13T10:38:21.387Z,8.10
2018-07-13T10:39:21.376Z,8.50
2018-07-13T10:40:21.348Z,8.40
2018-07-13T10:41:21.326Z,7.80
2018-07-13T10:42:21.302Z,7.60
2018-07-13T10:43:21.267Z,6.50
2018-07-13T10:44:21.260Z,7.10
2018-07-13T10:45:21.220Z,6.20
2018-07-13T10:46:21.273Z,10.30
2018-07-13T10:47:21.197Z,9.50
2018-07-13T10:48:21.181Z,9.30
2018-07-13T10:50:06.888Z,9.90
2018-07-13T10:51:06.816Z,7.90
2018-07-13T10:52:07.094Z,7.20
2018-07-13T10:53:06.766Z,8.00
2018-07-13T10:54:06.717Z,8.20
2018-07-13T10:55:06.776Z,9.60
2018-07-13T10:56:06.686Z,8.10
2018-07-13T10:57:06.746Z,8.20
2018-07-13T10:58:06.627Z,8.80
2018-07-13T10:59:06.696Z,7.30
2018-07-13T11:00:06.574Z,5.50
2018-07-13T11:01:12.362Z,5.50
2018-07-13T11:02:06.582Z,7.20
2018-07-13T11:03:08.574Z,5.20
2018-07-13T11:04:06.511Z,6.80
2018-07-13T11:05:06.543Z,6.90
2018-07-13T11:06:06.437Z,5.60
2018-07-13T11:07:06.408Z,6.00
2018-07-13T11:08:06.467Z,5.10
2018-07-13T11:09:06.370Z,8.10
2018-07-13T11:10:06.346Z,4.50
2018-07-13T11:11:06.364Z,5.70
2018-07-13T11:12:06.348Z,4.60
2018-07-13T11:13:52.143Z,8.40
2018-07-13T11:14:51.953Z,5.10
2018-07-13T11:15:51.914Z,6.90
2018-07-13T11:16:51.962Z,4.10
2018-07-13T11:17:51.852Z,5.20
2018-07-13T11:18:51.936Z,7.00
2018-07-13T11:19:51.816Z,7.20
2018-07-13T11:20:51.824Z,5.10
2018-07-13T11:21:51.784Z,8.50
2018-07-13T11:22:51.852Z,7.40
2018-07-13T11:23:51.714Z,5.80
2018-07-13T11:24:51.850Z,4.20
2018-07-13T11:25:51.678Z,5.50
2018-07-13T11:26:51.769Z,8.50
2018-07-13T11:27:51.634Z,6.70
2018-07-13T11:28:51.675Z,4.90
2018-07-13T11:29:51.721Z,6.50
2018-07-13T11:30:51.695Z,5.50
2018-07-13T11:31:51.536Z,6.90
2018-07-13T11:32:51.605Z,5.60
2018-07-13T11:33:51.503Z,6.60
2018-07-13T11:34:51.610Z,5.10
2018-07-13T11:35:51.446Z,4.70
2018-07-13T11:36:51.620Z,5.30
2018-07-13T11:37:51.411Z,3.60
2018-07-13T11:38:51.551Z,8.50
2018-07-13T11:39:51.361Z,5.30
2018-07-13T11:40:51.476Z,5.00
2018-07-13T11:41:51.332Z,4.10
2018-07-13T11:42:51.364Z,3.70
2018-07-13T11:43:51.295Z,5.10
2018-07-13T11:44:51.379Z,3.30
2018-07-13T11:45:51.223Z,5.50
2018-07-13T11:46:51.281Z,3.20
2018-07-13T11:47:51.178Z,4.70
2018-07-13T11:48:52.231Z,5.80
2018-07-13T11:49:51.131Z,3.20
2018-07-13T11:50:51.213Z,4.30
2018-07-13T11:51:51.090Z,5.20
2018-07-13T11:52:51.228Z,5.30
2018-07-13T11:53:51.105Z,4.70
2018-07-13T11:54:51.169Z,7.80
2018-07-13T11:55:50.999Z,5.20
2018-07-13T11:56:51.064Z,6.20
2018-07-13T11:57:50.980Z,4.10
2018-07-13T11:58:50.986Z,7.80
2018-07-13T11:59:51.064Z,5.00
2018-07-13T12:00:50.881Z,5.20
2018-07-13T12:01:50.885Z,7.20
2018-07-13T12:02:50.917Z,3.60
2018-07-13T12:03:50.831Z,4.70
2018-07-13T12:04:50.806Z,5.90
2018-07-13T12:05:50.789Z,4.70
2018-07-13T12:06:50.797Z,3.70
2018-07-13T12:07:50.791Z,5.60
2018-07-13T12:08:50.853Z,3.40
2018-07-13T12:09:50.731Z,3.60
2018-07-13T12:10:50.737Z,4.70
2018-07-13T12:11:50.669Z,3.10
2018-07-13T12:12:51.036Z,3.30
2018-07-13T12:13:50.615Z,3.80
2018-07-13T12:14:50.659Z,6.40
2018-07-13T12:15:50.547Z,4.50
2018-07-13T12:16:50.662Z,4.10
2018-07-13T12:17:50.611Z,4.00
2018-07-13T12:18:50.584Z,4.30
2018-07-13T12:19:50.544Z,5.40
2018-07-13T12:20:50.585Z,4.00
2018-07-13T12:21:50.417Z,4.80
2018-07-13T12:22:50.511Z,4.50
2018-07-13T12:24:36.500Z,7.20
2018-07-13T12:25:36.475Z,4.10
2018-07-13T12:26:36.379Z,4.00
2018-07-13T12:27:36.475Z,3.50
2018-07-13T12:28:36.340Z,9.30
2018-07-13T12:29:36.381Z,6.90
2018-07-13T12:30:36.292Z,4.80
2018-07-13T12:31:36.426Z,5.10
2018-07-13T12:32:36.390Z,5.20
2018-07-13T12:33:36.306Z,4.90
2018-07-13T12:34:36.191Z,4.60
2018-07-13T12:35:36.234Z,4.10
2018-07-13T12:36:36.149Z,4.10
2018-07-13T12:37:36.217Z,5.10
2018-07-13T12:38:36.123Z,4.30
2018-07-13T12:39:37.232Z,4.70
2018-07-13T12:40:36.079Z,3.40
2018-07-13T12:41:41.779Z,3.80
2018-07-13T12:42:36.030Z,4.40
2018-07-13T12:43:42.817Z,4.20
2018-07-13T12:44:35.979Z,3.90
2018-07-13T12:45:57.996Z,3.80
2018-07-13T12:46:35.937Z,3.90
2018-07-13T12:48:00.747Z,5.70
2018-07-13T12:48:35.885Z,4.50
2018-07-13T12:49:35.864Z,3.90
2018-07-13T12:50:46.731Z,3.50
2018-07-13T12:51:35.812Z,6.60
2018-07-13T12:52:40.731Z,4.80
2018-07-13T12:53:35.771Z,3.00
2018-07-13T12:54:48.727Z,5.40
2018-07-13T12:55:35.730Z,3.40
2018-07-13T12:56:41.767Z,4.90
2018-07-13T12:57:35.711Z,4.00
2018-07-13T13:19:57.419Z,7.20
2018-07-13T13:20:57.372Z,4.20
2018-07-13T13:21:57.481Z,2.90
2018-07-13T13:22:57.311Z,3.50
2018-07-13T13:23:57.267Z,4.70
2018-07-13T13:24:57.265Z,4.40
2018-07-13T13:25:57.244Z,3.80
2018-07-13T13:26:57.201Z,2.30
2018-07-13T13:27:57.175Z,3.50